KDDC/DDC METAR and TAF weather

Enter ICAO airport designator
Station Type Date Time Source
KDDC METAR 2019/06/16 12:52 UTC NOAA

KDDC 161252Z AUTO 05004KT 8SM CLR 18/16 A2993 RMK AO2 SLP106 T01780161


Station Type Date Time Source
KDDC Decoded METAR 2019/06/16 12:52 UTC NOAA

DODGE CITY REGIONAL AIRPORT, KS, United States (KDDC) 37-46N 99-58W 789M
Jun 16, 2019 - 08:52 AM EDT / 2019.06.16 1252 UTC
Wind: from the NE (050 degrees) at 5 MPH (4 KT):0
Visibility: 8 mile(s):0
Sky conditions: clear
Temperature: 64.0 F (17.8 C)
Dew Point: 61.0 F (16.1 C)
Relative Humidity: 89%
Pressure (altimeter): 29.93 in. Hg (1013 hPa)
ob: KDDC 161252Z AUTO 05004KT 8SM CLR 18/16 A2993 RMK AO2 SLP106 T01780161
cycle: 13

Station Type Date Time Source
KDDC TAF 2019/06/16 12:22 UTC NOAA

TAF KDDC 161120Z 1612/1712 VRB06KT P6SM SCT250

Example: see airport list